sensor_id;sensor_type;location;lat;lon;timestamp;P1;durP1;ratioP1;P2;durP2;ratioP2
78555;SDS011;67851;51.354;7.744;2023-03-05T00:01:15;9.20;;;2.67;;
78555;SDS011;67851;51.354;7.744;2023-03-05T00:03:51;7.13;;;1.90;;
78555;SDS011;67851;51.354;7.744;2023-03-05T00:06:18;7.60;;;2.50;;
78555;SDS011;67851;51.354;7.744;2023-03-05T00:08:44;9.52;;;1.80;;
78555;SDS011;67851;51.354;7.744;2023-03-05T00:11:10;7.22;;;1.77;;
78555;SDS011;67851;51.354;7.744;2023-03-05T00:13:36;9.57;;;1.95;;
78555;SDS011;67851;51.354;7.744;2023-03-05T00:16:07;12.73;;;1.75;;
78555;SDS011;67851;51.354;7.744;2023-03-05T00:18:37;6.43;;;1.80;;
78555;SDS011;67851;51.354;7.744;2023-03-05T00:21:03;4.15;;;1.48;;
78555;SDS011;67851;51.354;7.744;2023-03-05T00:23:30;7.28;;;1.40;;
78555;SDS011;67851;51.354;7.744;2023-03-05T00:25:56;7.03;;;1.40;;
78555;SDS011;67851;51.354;7.744;2023-03-05T00:28:25;7.00;;;1.55;;
78555;SDS011;67851;51.354;7.744;2023-03-05T00:30:51;8.43;;;1.67;;
78555;SDS011;67851;51.354;7.744;2023-03-05T00:33:16;6.72;;;1.85;;
78555;SDS011;67851;51.354;7.744;2023-03-05T00:35:43;6.70;;;2.20;;
78555;SDS011;67851;51.354;7.744;2023-03-05T00:38:10;8.55;;;2.05;;
78555;SDS011;67851;51.354;7.744;2023-03-05T00:40:37;11.13;;;2.40;;
78555;SDS011;67851;51.354;7.744;2023-03-05T00:43:04;5.10;;;2.03;;
78555;SDS011;67851;51.354;7.744;2023-03-05T00:45:30;10.35;;;2.78;;
78555;SDS011;67851;51.354;7.744;2023-03-05T00:47:55;8.35;;;2.03;;
78555;SDS011;67851;51.354;7.744;2023-03-05T00:50:21;5.53;;;1.92;;
78555;SDS011;67851;51.354;7.744;2023-03-05T00:52:47;10.18;;;2.67;;
78555;SDS011;67851;51.354;7.744;2023-03-05T00:55:12;8.05;;;1.70;;
78555;SDS011;67851;51.354;7.744;2023-03-05T00:57:38;6.18;;;1.60;;
78555;SDS011;67851;51.354;7.744;2023-03-05T01:00:04;10.60;;;1.92;;
78555;SDS011;67851;51.354;7.744;2023-03-05T01:02:30;8.70;;;1.60;;
78555;SDS011;67851;51.354;7.744;2023-03-05T01:04:56;11.95;;;2.10;;
78555;SDS011;67851;51.354;7.744;2023-03-05T01:07:21;6.40;;;1.85;;
78555;SDS011;67851;51.354;7.744;2023-03-05T01:09:47;10.10;;;2.30;;
78555;SDS011;67851;51.354;7.744;2023-03-05T01:12:12;5.50;;;1.80;;
78555;SDS011;67851;51.354;7.744;2023-03-05T01:14:38;8.95;;;1.85;;
78555;SDS011;67851;51.354;7.744;2023-03-05T01:17:03;9.50;;;2.83;;
78555;SDS011;67851;51.354;7.744;2023-03-05T01:19:29;11.25;;;2.65;;
78555;SDS011;67851;51.354;7.744;2023-03-05T01:21:55;9.20;;;3.17;;
78555;SDS011;67851;51.354;7.744;2023-03-05T01:24:20;16.02;;;3.42;;
78555;SDS011;67851;51.354;7.744;2023-03-05T01:26:46;17.10;;;3.65;;
78555;SDS011;67851;51.354;7.744;2023-03-05T01:29:13;9.27;;;2.40;;
78555;SDS011;67851;51.354;7.744;2023-03-05T01:31:39;9.70;;;2.08;;
78555;SDS011;67851;51.354;7.744;2023-03-05T01:34:05;7.90;;;2.95;;
78555;SDS011;67851;51.354;7.744;2023-03-05T01:36:30;4.60;;;1.58;;
78555;SDS011;67851;51.354;7.744;2023-03-05T01:38:56;17.65;;;4.00;;
78555;SDS011;67851;51.354;7.744;2023-03-05T01:41:22;12.02;;;2.30;;
78555;SDS011;67851;51.354;7.744;2023-03-05T01:43:47;8.10;;;2.60;;
78555;SDS011;67851;51.354;7.744;2023-03-05T01:48:43;25.77;;;3.40;;
78555;SDS011;67851;51.354;7.744;2023-03-05T01:51:10;14.98;;;4.90;;
78555;SDS011;67851;51.354;7.744;2023-03-05T01:53:36;17.63;;;4.25;;
78555;SDS011;67851;51.354;7.744;2023-03-05T01:56:02;12.10;;;3.40;;
78555;SDS011;67851;51.354;7.744;2023-03-05T01:58:27;13.38;;;3.33;;
78555;SDS011;67851;51.354;7.744;2023-03-05T02:00:53;16.15;;;3.80;;
78555;SDS011;67851;51.354;7.744;2023-03-05T02:03:19;16.85;;;3.65;;
78555;SDS011;67851;51.354;7.744;2023-03-05T02:05:46;14.52;;;3.25;;
78555;SDS011;67851;51.354;7.744;2023-03-05T02:08:13;10.13;;;2.92;;
78555;SDS011;67851;51.354;7.744;2023-03-05T02:10:42;13.55;;;3.55;;
78555;SDS011;67851;51.354;7.744;2023-03-05T02:13:14;12.13;;;3.65;;
78555;SDS011;67851;51.354;7.744;2023-03-05T02:15:43;16.90;;;4.28;;
78555;SDS011;67851;51.354;7.744;2023-03-05T02:18:09;12.65;;;4.40;;
78555;SDS011;67851;51.354;7.744;2023-03-05T02:23:26;17.73;;;5.93;;
78555;SDS011;67851;51.354;7.744;2023-03-05T02:25:53;16.90;;;5.82;;
78555;SDS011;67851;51.354;7.744;2023-03-05T02:28:22;14.73;;;5.95;;
78555;SDS011;67851;51.354;7.744;2023-03-05T02:30:50;20.13;;;6.90;;
78555;SDS011;67851;51.354;7.744;2023-03-05T02:33:17;25.70;;;7.38;;
78555;SDS011;67851;51.354;7.744;2023-03-05T02:35:44;21.45;;;8.13;;
78555;SDS011;67851;51.354;7.744;2023-03-05T02:38:11;27.00;;;8.52;;
78555;SDS011;67851;51.354;7.744;2023-03-05T02:40:38;20.67;;;8.10;;
78555;SDS011;67851;51.354;7.744;2023-03-05T02:43:04;21.98;;;9.23;;
78555;SDS011;67851;51.354;7.744;2023-03-05T02:45:29;21.65;;;8.57;;
78555;SDS011;67851;51.354;7.744;2023-03-05T02:47:55;24.95;;;8.07;;
78555;SDS011;67851;51.354;7.744;2023-03-05T02:50:21;23.85;;;9.52;;
78555;SDS011;67851;51.354;7.744;2023-03-05T02:52:47;27.98;;;9.35;;
78555;SDS011;67851;51.354;7.744;2023-03-05T02:55:14;28.00;;;10.23;;
78555;SDS011;67851;51.354;7.744;2023-03-05T02:57:41;27.00;;;9.50;;
78555;SDS011;67851;51.354;7.744;2023-03-05T03:00:07;27.13;;;10.25;;
78555;SDS011;67851;51.354;7.744;2023-03-05T03:02:33;26.73;;;9.75;;
78555;SDS011;67851;51.354;7.744;2023-03-05T03:04:59;26.05;;;9.25;;
78555;SDS011;67851;51.354;7.744;2023-03-05T03:07:24;23.80;;;8.57;;
78555;SDS011;67851;51.354;7.744;2023-03-05T03:09:51;25.40;;;9.15;;
78555;SDS011;67851;51.354;7.744;2023-03-05T03:12:16;20.70;;;8.40;;
78555;SDS011;67851;51.354;7.744;2023-03-05T03:14:42;24.98;;;8.43;;
78555;SDS011;67851;51.354;7.744;2023-03-05T03:17:09;23.38;;;7.07;;
78555;SDS011;67851;51.354;7.744;2023-03-05T03:19:36;20.88;;;7.40;;
78555;SDS011;67851;51.354;7.744;2023-03-05T03:22:02;21.40;;;8.15;;
78555;SDS011;67851;51.354;7.744;2023-03-05T03:24:28;22.92;;;6.57;;
78555;SDS011;67851;51.354;7.744;2023-03-05T03:26:54;19.70;;;7.55;;
78555;SDS011;67851;51.354;7.744;2023-03-05T03:29:20;21.80;;;6.90;;
78555;SDS011;67851;51.354;7.744;2023-03-05T03:31:45;27.50;;;8.20;;
78555;SDS011;67851;51.354;7.744;2023-03-05T03:34:12;32.40;;;10.02;;
78555;SDS011;67851;51.354;7.744;2023-03-05T03:36:39;24.45;;;9.10;;
78555;SDS011;67851;51.354;7.744;2023-03-05T03:39:04;31.88;;;12.90;;
78555;SDS011;67851;51.354;7.744;2023-03-05T03:41:30;32.67;;;11.82;;
78555;SDS011;67851;51.354;7.744;2023-03-05T03:43:57;36.10;;;16.58;;
78555;SDS011;67851;51.354;7.744;2023-03-05T03:46:22;41.33;;;14.73;;
78555;SDS011;67851;51.354;7.744;2023-03-05T03:48:48;37.40;;;17.13;;
78555;SDS011;67851;51.354;7.744;2023-03-05T03:51:15;32.67;;;17.60;;
78555;SDS011;67851;51.354;7.744;2023-03-05T03:53:41;36.50;;;17.30;;
78555;SDS011;67851;51.354;7.744;2023-03-05T03:56:06;41.53;;;18.85;;
78555;SDS011;67851;51.354;7.744;2023-03-05T03:58:32;33.65;;;17.50;;
78555;SDS011;67851;51.354;7.744;2023-03-05T04:00:57;39.17;;;17.33;;
78555;SDS011;67851;51.354;7.744;2023-03-05T04:03:23;37.70;;;18.13;;
78555;SDS011;67851;51.354;7.744;2023-03-05T04:05:48;37.92;;;20.63;;
78555;SDS011;67851;51.354;7.744;2023-03-05T04:08:14;51.85;;;20.88;;
78555;SDS011;67851;51.354;7.744;2023-03-05T04:10:40;38.90;;;19.05;;
78555;SDS011;67851;51.354;7.744;2023-03-05T04:13:06;40.00;;;18.52;;
78555;SDS011;67851;51.354;7.744;2023-03-05T04:15:32;40.05;;;19.20;;
78555;SDS011;67851;51.354;7.744;2023-03-05T04:17:58;39.20;;;20.40;;
78555;SDS011;67851;51.354;7.744;2023-03-05T04:20:24;44.22;;;21.23;;
78555;SDS011;67851;51.354;7.744;2023-03-05T04:22:50;43.88;;;19.52;;
78555;SDS011;67851;51.354;7.744;2023-03-05T04:25:16;39.15;;;20.02;;
78555;SDS011;67851;51.354;7.744;2023-03-05T04:27:41;37.88;;;19.88;;
78555;SDS011;67851;51.354;7.744;2023-03-05T04:30:08;41.90;;;19.98;;
78555;SDS011;67851;51.354;7.744;2023-03-05T04:32:36;39.22;;;19.35;;
78555;SDS011;67851;51.354;7.744;2023-03-05T04:35:02;41.28;;;21.90;;
78555;SDS011;67851;51.354;7.744;2023-03-05T04:37:27;38.03;;;20.50;;
78555;SDS011;67851;51.354;7.744;2023-03-05T04:39:53;39.83;;;20.65;;
78555;SDS011;67851;51.354;7.744;2023-03-05T04:42:19;41.10;;;21.60;;
78555;SDS011;67851;51.354;7.744;2023-03-05T04:44:46;36.50;;;19.80;;
78555;SDS011;67851;51.354;7.744;2023-03-05T04:47:12;39.08;;;19.70;;
78555;SDS011;67851;51.354;7.744;2023-03-05T04:49:38;36.25;;;18.38;;
78555;SDS011;67851;51.354;7.744;2023-03-05T04:52:04;40.60;;;19.50;;
78555;SDS011;67851;51.354;7.744;2023-03-05T04:54:29;36.75;;;20.38;;
78555;SDS011;67851;51.354;7.744;2023-03-05T04:56:55;33.88;;;19.80;;
78555;SDS011;67851;51.354;7.744;2023-03-05T04:59:21;37.25;;;20.15;;
78555;SDS011;67851;51.354;7.744;2023-03-05T05:01:46;37.03;;;18.80;;
78555;SDS011;67851;51.354;7.744;2023-03-05T05:04:12;37.05;;;18.73;;
78555;SDS011;67851;51.354;7.744;2023-03-05T05:06:37;33.70;;;18.10;;
78555;SDS011;67851;51.354;7.744;2023-03-05T05:09:03;33.10;;;17.27;;
78555;SDS011;67851;51.354;7.744;2023-03-05T05:11:28;27.40;;;15.75;;
78555;SDS011;67851;51.354;7.744;2023-03-05T05:13:54;25.20;;;14.07;;
78555;SDS011;67851;51.354;7.744;2023-03-05T05:16:19;29.73;;;13.93;;
78555;SDS011;67851;51.354;7.744;2023-03-05T05:18:45;31.45;;;15.25;;
78555;SDS011;67851;51.354;7.744;2023-03-05T05:21:11;26.40;;;13.80;;
78555;SDS011;67851;51.354;7.744;2023-03-05T05:23:38;31.10;;;14.07;;
78555;SDS011;67851;51.354;7.744;2023-03-05T05:26:04;28.48;;;12.32;;
78555;SDS011;67851;51.354;7.744;2023-03-05T05:28:31;27.95;;;13.43;;
78555;SDS011;67851;51.354;7.744;2023-03-05T05:30:57;32.00;;;12.40;;
78555;SDS011;67851;51.354;7.744;2023-03-05T05:33:23;27.40;;;13.27;;
78555;SDS011;67851;51.354;7.744;2023-03-05T05:35:48;24.15;;;12.35;;
78555;SDS011;67851;51.354;7.744;2023-03-05T05:38:14;28.58;;;14.18;;
78555;SDS011;67851;51.354;7.744;2023-03-05T05:40:40;29.67;;;13.18;;
78555;SDS011;67851;51.354;7.744;2023-03-05T05:43:05;32.65;;;15.60;;
78555;SDS011;67851;51.354;7.744;2023-03-05T05:45:31;37.55;;;15.45;;
78555;SDS011;67851;51.354;7.744;2023-03-05T05:47:57;30.05;;;14.32;;
78555;SDS011;67851;51.354;7.744;2023-03-05T05:50:25;35.63;;;20.27;;
78555;SDS011;67851;51.354;7.744;2023-03-05T05:52:52;34.28;;;17.73;;
78555;SDS011;67851;51.354;7.744;2023-03-05T05:55:18;35.22;;;16.30;;
78555;SDS011;67851;51.354;7.744;2023-03-05T05:57:43;33.67;;;17.15;;
78555;SDS011;67851;51.354;7.744;2023-03-05T06:00:10;35.67;;;18.17;;
78555;SDS011;67851;51.354;7.744;2023-03-05T06:02:40;40.65;;;21.60;;
78555;SDS011;67851;51.354;7.744;2023-03-05T06:05:07;48.38;;;23.33;;
78555;SDS011;67851;51.354;7.744;2023-03-05T06:07:34;54.17;;;23.92;;
78555;SDS011;67851;51.354;7.744;2023-03-05T06:10:00;59.15;;;27.35;;
78555;SDS011;67851;51.354;7.744;2023-03-05T06:12:25;47.47;;;24.15;;
78555;SDS011;67851;51.354;7.744;2023-03-05T06:14:51;60.08;;;27.55;;
78555;SDS011;67851;51.354;7.744;2023-03-05T06:17:18;54.33;;;26.83;;
78555;SDS011;67851;51.354;7.744;2023-03-05T06:19:43;63.28;;;27.98;;
78555;SDS011;67851;51.354;7.744;2023-03-05T06:22:09;56.63;;;27.02;;
78555;SDS011;67851;51.354;7.744;2023-03-05T06:24:37;58.17;;;26.25;;
78555;SDS011;67851;51.354;7.744;2023-03-05T06:27:03;45.92;;;23.48;;
78555;SDS011;67851;51.354;7.744;2023-03-05T06:29:29;45.38;;;23.10;;
78555;SDS011;67851;51.354;7.744;2023-03-05T06:31:55;49.70;;;23.08;;
78555;SDS011;67851;51.354;7.744;2023-03-05T06:34:20;45.67;;;20.95;;
78555;SDS011;67851;51.354;7.744;2023-03-05T06:36:46;35.75;;;18.25;;
78555;SDS011;67851;51.354;7.744;2023-03-05T06:39:11;37.05;;;19.25;;
78555;SDS011;67851;51.354;7.744;2023-03-05T06:41:38;30.45;;;16.30;;
78555;SDS011;67851;51.354;7.744;2023-03-05T06:44:03;37.42;;;17.48;;
78555;SDS011;67851;51.354;7.744;2023-03-05T06:46:30;38.55;;;16.83;;
78555;SDS011;67851;51.354;7.744;2023-03-05T06:48:59;31.98;;;16.48;;
78555;SDS011;67851;51.354;7.744;2023-03-05T06:51:26;35.28;;;16.48;;
78555;SDS011;67851;51.354;7.744;2023-03-05T06:53:58;36.20;;;19.88;;
78555;SDS011;67851;51.354;7.744;2023-03-05T06:56:25;40.88;;;18.58;;
78555;SDS011;67851;51.354;7.744;2023-03-05T06:58:51;49.20;;;22.30;;
78555;SDS011;67851;51.354;7.744;2023-03-05T07:01:17;52.15;;;24.52;;
78555;SDS011;67851;51.354;7.744;2023-03-05T07:03:43;55.08;;;26.75;;
78555;SDS011;67851;51.354;7.744;2023-03-05T07:06:11;61.10;;;28.38;;
78555;SDS011;67851;51.354;7.744;2023-03-05T07:08:40;61.35;;;28.05;;
78555;SDS011;67851;51.354;7.744;2023-03-05T07:11:11;57.65;;;28.58;;
78555;SDS011;67851;51.354;7.744;2023-03-05T07:13:39;54.50;;;27.08;;
78555;SDS011;67851;51.354;7.744;2023-03-05T07:16:09;53.60;;;26.10;;
78555;SDS011;67851;51.354;7.744;2023-03-05T07:18:38;49.38;;;26.55;;
78555;SDS011;67851;51.354;7.744;2023-03-05T07:21:04;58.40;;;27.02;;
78555;SDS011;67851;51.354;7.744;2023-03-05T07:23:30;55.08;;;27.10;;
78555;SDS011;67851;51.354;7.744;2023-03-05T07:25:56;54.13;;;25.25;;
78555;SDS011;67851;51.354;7.744;2023-03-05T07:28:22;60.25;;;26.70;;
78555;SDS011;67851;51.354;7.744;2023-03-05T07:30:57;55.17;;;26.25;;
78555;SDS011;67851;51.354;7.744;2023-03-05T07:33:24;61.95;;;27.33;;
78555;SDS011;67851;51.354;7.744;2023-03-05T07:35:50;58.00;;;24.60;;
78555;SDS011;67851;51.354;7.744;2023-03-05T07:38:15;56.15;;;25.08;;
78555;SDS011;67851;51.354;7.744;2023-03-05T07:40:41;44.58;;;22.60;;
78555;SDS011;67851;51.354;7.744;2023-03-05T07:43:06;52.50;;;21.20;;
78555;SDS011;67851;51.354;7.744;2023-03-05T07:45:33;31.95;;;15.30;;
78555;SDS011;67851;51.354;7.744;2023-03-05T07:47:59;37.67;;;18.08;;
78555;SDS011;67851;51.354;7.744;2023-03-05T07:50:24;30.23;;;15.25;;
78555;SDS011;67851;51.354;7.744;2023-03-05T07:52:50;39.10;;;17.50;;
78555;SDS011;67851;51.354;7.744;2023-03-05T07:55:15;40.70;;;18.45;;
78555;SDS011;67851;51.354;7.744;2023-03-05T07:57:41;41.90;;;18.85;;
78555;SDS011;67851;51.354;7.744;2023-03-05T08:00:07;44.45;;;21.30;;
78555;SDS011;67851;51.354;7.744;2023-03-05T08:02:39;46.00;;;21.10;;
78555;SDS011;67851;51.354;7.744;2023-03-05T08:05:04;49.67;;;22.70;;
78555;SDS011;67851;51.354;7.744;2023-03-05T08:07:30;47.35;;;24.40;;
78555;SDS011;67851;51.354;7.744;2023-03-05T08:09:56;48.80;;;24.23;;
78555;SDS011;67851;51.354;7.744;2023-03-05T08:12:21;51.75;;;26.05;;
78555;SDS011;67851;51.354;7.744;2023-03-05T08:14:47;47.90;;;24.35;;
78555;SDS011;67851;51.354;7.744;2023-03-05T08:17:13;40.33;;;21.50;;
78555;SDS011;67851;51.354;7.744;2023-03-05T08:19:38;44.13;;;21.25;;
78555;SDS011;67851;51.354;7.744;2023-03-05T08:22:04;33.67;;;18.60;;
78555;SDS011;67851;51.354;7.744;2023-03-05T08:24:29;45.53;;;22.63;;
78555;SDS011;67851;51.354;7.744;2023-03-05T08:26:56;43.33;;;23.20;;
78555;SDS011;67851;51.354;7.744;2023-03-05T08:29:22;59.40;;;29.13;;
78555;SDS011;67851;51.354;7.744;2023-03-05T08:31:48;61.20;;;29.98;;
78555;SDS011;67851;51.354;7.744;2023-03-05T08:34:15;58.55;;;30.90;;
78555;SDS011;67851;51.354;7.744;2023-03-05T08:36:40;63.03;;;31.73;;
78555;SDS011;67851;51.354;7.744;2023-03-05T08:39:06;62.05;;;29.08;;
78555;SDS011;67851;51.354;7.744;2023-03-05T08:41:32;57.13;;;29.05;;
78555;SDS011;67851;51.354;7.744;2023-03-05T08:43:58;53.92;;;28.35;;
78555;SDS011;67851;51.354;7.744;2023-03-05T08:46:23;68.43;;;31.00;;
78555;SDS011;67851;51.354;7.744;2023-03-05T08:48:50;59.63;;;29.75;;
78555;SDS011;67851;51.354;7.744;2023-03-05T08:51:17;56.47;;;26.80;;
78555;SDS011;67851;51.354;7.744;2023-03-05T08:53:45;60.97;;;29.98;;
78555;SDS011;67851;51.354;7.744;2023-03-05T08:56:11;67.32;;;31.42;;
78555;SDS011;67851;51.354;7.744;2023-03-05T08:58:37;67.05;;;31.67;;
78555;SDS011;67851;51.354;7.744;2023-03-05T09:01:02;56.28;;;28.20;;
78555;SDS011;67851;51.354;7.744;2023-03-05T09:03:28;59.03;;;30.17;;
78555;SDS011;67851;51.354;7.744;2023-03-05T09:05:57;58.30;;;26.50;;
78555;SDS011;67851;51.354;7.744;2023-03-05T09:08:24;46.95;;;25.63;;
78555;SDS011;67851;51.354;7.744;2023-03-05T09:10:50;56.75;;;27.42;;
78555;SDS011;67851;51.354;7.744;2023-03-05T09:13:15;53.20;;;27.88;;
78555;SDS011;67851;51.354;7.744;2023-03-05T09:15:41;62.25;;;30.27;;
78555;SDS011;67851;51.354;7.744;2023-03-05T09:18:06;62.78;;;29.85;;
78555;SDS011;67851;51.354;7.744;2023-03-05T09:20:33;55.53;;;29.38;;
78555;SDS011;67851;51.354;7.744;2023-03-05T09:22:59;55.85;;;27.88;;
78555;SDS011;67851;51.354;7.744;2023-03-05T09:25:25;51.25;;;28.80;;
78555;SDS011;67851;51.354;7.744;2023-03-05T09:27:51;59.28;;;28.83;;
78555;SDS011;67851;51.354;7.744;2023-03-05T09:30:17;49.15;;;24.83;;
78555;SDS011;67851;51.354;7.744;2023-03-05T09:32:42;56.42;;;28.73;;
78555;SDS011;67851;51.354;7.744;2023-03-05T09:35:08;46.15;;;26.23;;
78555;SDS011;67851;51.354;7.744;2023-03-05T09:37:34;52.45;;;27.08;;
78555;SDS011;67851;51.354;7.744;2023-03-05T09:39:59;45.65;;;23.40;;
78555;SDS011;67851;51.354;7.744;2023-03-05T09:42:27;38.83;;;23.05;;
78555;SDS011;67851;51.354;7.744;2023-03-05T09:51:04;48.42;;;25.80;;
78555;SDS011;67851;51.354;7.744;2023-03-05T09:56:28;44.00;;;26.13;;
78555;SDS011;67851;51.354;7.744;2023-03-05T09:58:59;46.78;;;27.10;;
78555;SDS011;67851;51.354;7.744;2023-03-05T10:01:34;48.20;;;26.48;;
78555;SDS011;67851;51.354;7.744;2023-03-05T10:04:20;56.95;;;30.45;;
78555;SDS011;67851;51.354;7.744;2023-03-05T10:09:26;38.35;;;21.67;;
78555;SDS011;67851;51.354;7.744;2023-03-05T10:12:00;30.60;;;18.70;;
78555;SDS011;67851;51.354;7.744;2023-03-05T10:14:29;37.42;;;21.83;;
78555;SDS011;67851;51.354;7.744;2023-03-05T10:17:04;35.38;;;22.73;;
78555;SDS011;67851;51.354;7.744;2023-03-05T10:37:51;44.53;;;24.55;;
78555;SDS011;67851;51.354;7.744;2023-03-05T10:45:40;30.25;;;21.25;;
78555;SDS011;67851;51.354;7.744;2023-03-05T10:48:11;39.33;;;25.40;;
78555;SDS011;67851;51.354;7.744;2023-03-05T10:50:46;30.77;;;20.08;;
78555;SDS011;67851;51.354;7.744;2023-03-05T10:53:25;27.50;;;18.88;;
78555;SDS011;67851;51.354;7.744;2023-03-05T10:55:52;27.38;;;19.38;;
78555;SDS011;67851;51.354;7.744;2023-03-05T10:58:21;26.15;;;16.85;;
78555;SDS011;67851;51.354;7.744;2023-03-05T11:01:30;23.63;;;17.10;;
78555;SDS011;67851;51.354;7.744;2023-03-05T11:06:41;24.15;;;16.48;;
78555;SDS011;67851;51.354;7.744;2023-03-05T11:09:20;30.17;;;18.75;;
78555;SDS011;67851;51.354;7.744;2023-03-05T11:12:36;27.05;;;16.38;;
78555;SDS011;67851;51.354;7.744;2023-03-05T11:14:44;23.73;;;15.00;;
78555;SDS011;67851;51.354;7.744;2023-03-05T11:17:27;24.55;;;15.73;;
78555;SDS011;67851;51.354;7.744;2023-03-05T11:20:29;22.08;;;14.45;;
78555;SDS011;67851;51.354;7.744;2023-03-05T11:25:29;22.30;;;14.35;;
78555;SDS011;67851;51.354;7.744;2023-03-05T11:27:57;23.35;;;13.82;;
78555;SDS011;67851;51.354;7.744;2023-03-05T11:30:25;22.02;;;13.98;;
78555;SDS011;67851;51.354;7.744;2023-03-05T11:33:09;22.70;;;13.30;;
78555;SDS011;67851;51.354;7.744;2023-03-05T11:35:40;21.50;;;14.27;;
78555;SDS011;67851;51.354;7.744;2023-03-05T11:40:55;21.60;;;14.20;;
78555;SDS011;67851;51.354;7.744;2023-03-05T11:43:22;26.48;;;15.50;;
78555;SDS011;67851;51.354;7.744;2023-03-05T11:45:59;27.67;;;17.10;;
78555;SDS011;67851;51.354;7.744;2023-03-05T11:48:34;27.38;;;17.27;;
78555;SDS011;67851;51.354;7.744;2023-03-05T11:51:02;32.85;;;19.25;;
78555;SDS011;67851;51.354;7.744;2023-03-05T11:53:41;31.15;;;17.83;;
78555;SDS011;67851;51.354;7.744;2023-03-05T12:01:27;39.45;;;21.45;;
78555;SDS011;67851;51.354;7.744;2023-03-05T12:03:56;40.08;;;23.77;;
78555;SDS011;67851;51.354;7.744;2023-03-05T12:08:55;35.28;;;21.83;;
78555;SDS011;67851;51.354;7.744;2023-03-05T12:11:22;37.53;;;22.30;;
78555;SDS011;67851;51.354;7.744;2023-03-05T12:21:54;43.22;;;23.77;;
78555;SDS011;67851;51.354;7.744;2023-03-05T12:35:20;49.45;;;27.75;;
78555;SDS011;67851;51.354;7.744;2023-03-05T12:40:18;43.88;;;27.23;;
78555;SDS011;67851;51.354;7.744;2023-03-05T12:42:51;47.42;;;26.10;;
78555;SDS011;67851;51.354;7.744;2023-03-05T12:45:23;46.13;;;28.38;;
78555;SDS011;67851;51.354;7.744;2023-03-05T12:52:51;38.10;;;22.17;;
78555;SDS011;67851;51.354;7.744;2023-03-05T12:55:33;28.33;;;19.02;;
78555;SDS011;67851;51.354;7.744;2023-03-05T13:03:08;28.05;;;18.50;;
78555;SDS011;67851;51.354;7.744;2023-03-05T13:05:38;31.70;;;20.88;;
78555;SDS011;67851;51.354;7.744;2023-03-05T13:10:51;28.75;;;18.10;;
78555;SDS011;67851;51.354;7.744;2023-03-05T13:13:17;26.40;;;18.17;;
78555;SDS011;67851;51.354;7.744;2023-03-05T13:15:47;27.17;;;18.20;;
78555;SDS011;67851;51.354;7.744;2023-03-05T13:18:20;28.02;;;17.13;;
78555;SDS011;67851;51.354;7.744;2023-03-05T13:20:48;22.98;;;15.65;;
78555;SDS011;67851;51.354;7.744;2023-03-05T13:23:26;21.85;;;16.25;;
78555;SDS011;67851;51.354;7.744;2023-03-05T13:29:17;25.00;;;16.02;;
78555;SDS011;67851;51.354;7.744;2023-03-05T13:31:55;23.42;;;15.50;;
78555;SDS011;67851;51.354;7.744;2023-03-05T13:34:31;25.35;;;14.63;;
78555;SDS011;67851;51.354;7.744;2023-03-05T13:36:59;19.23;;;14.13;;
78555;SDS011;67851;51.354;7.744;2023-03-05T13:39:27;20.92;;;12.45;;
78555;SDS011;67851;51.354;7.744;2023-03-05T13:42:06;22.83;;;13.20;;
78555;SDS011;67851;51.354;7.744;2023-03-05T13:44:39;18.30;;;13.00;;
78555;SDS011;67851;51.354;7.744;2023-03-05T13:47:05;20.95;;;13.27;;
78555;SDS011;67851;51.354;7.744;2023-03-05T13:49:32;19.85;;;14.02;;
78555;SDS011;67851;51.354;7.744;2023-03-05T13:51:58;23.90;;;15.77;;
78555;SDS011;67851;51.354;7.744;2023-03-05T13:54:25;25.20;;;14.70;;
78555;SDS011;67851;51.354;7.744;2023-03-05T13:59:22;20.20;;;14.38;;
78555;SDS011;67851;51.354;7.744;2023-03-05T14:01:49;26.50;;;15.73;;
78555;SDS011;67851;51.354;7.744;2023-03-05T14:04:19;21.13;;;13.68;;
78555;SDS011;67851;51.354;7.744;2023-03-05T14:06:53;20.58;;;14.43;;
78555;SDS011;67851;51.354;7.744;2023-03-05T14:09:24;21.58;;;15.40;;
78555;SDS011;67851;51.354;7.744;2023-03-05T14:11:52;22.70;;;15.20;;
78555;SDS011;67851;51.354;7.744;2023-03-05T14:14:18;21.60;;;14.57;;
78555;SDS011;67851;51.354;7.744;2023-03-05T14:16:46;22.63;;;13.13;;
78555;SDS011;67851;51.354;7.744;2023-03-05T14:19:30;21.38;;;13.02;;
78555;SDS011;67851;51.354;7.744;2023-03-05T14:21:58;19.85;;;13.70;;
78555;SDS011;67851;51.354;7.744;2023-03-05T14:24:25;22.77;;;13.85;;
78555;SDS011;67851;51.354;7.744;2023-03-05T14:26:53;18.55;;;12.48;;
78555;SDS011;67851;51.354;7.744;2023-03-05T14:29:21;15.68;;;11.25;;
78555;SDS011;67851;51.354;7.744;2023-03-05T14:37:23;15.18;;;10.70;;
78555;SDS011;67851;51.354;7.744;2023-03-05T14:39:54;14.60;;;9.75;;
78555;SDS011;67851;51.354;7.744;2023-03-05T14:45:12;19.73;;;11.52;;
78555;SDS011;67851;51.354;7.744;2023-03-05T14:47:39;16.10;;;10.77;;
78555;SDS011;67851;51.354;7.744;2023-03-05T14:50:06;16.23;;;10.25;;
78555;SDS011;67851;51.354;7.744;2023-03-05T14:52:32;25.27;;;15.30;;
78555;SDS011;67851;51.354;7.744;2023-03-05T14:54:58;13.90;;;9.00;;
78555;SDS011;67851;51.354;7.744;2023-03-05T14:57:25;14.35;;;9.23;;
78555;SDS011;67851;51.354;7.744;2023-03-05T14:59:52;9.25;;;7.10;;
78555;SDS011;67851;51.354;7.744;2023-03-05T15:02:23;11.25;;;6.88;;
78555;SDS011;67851;51.354;7.744;2023-03-05T15:04:50;12.02;;;6.10;;
78555;SDS011;67851;51.354;7.744;2023-03-05T15:09:50;11.45;;;7.05;;
78555;SDS011;67851;51.354;7.744;2023-03-05T15:12:16;11.98;;;7.53;;
78555;SDS011;67851;51.354;7.744;2023-03-05T15:14:42;11.70;;;7.90;;
78555;SDS011;67851;51.354;7.744;2023-03-05T15:17:15;10.50;;;7.50;;
78555;SDS011;67851;51.354;7.744;2023-03-05T15:19:46;11.02;;;8.05;;
78555;SDS011;67851;51.354;7.744;2023-03-05T15:22:12;16.17;;;8.32;;
78555;SDS011;67851;51.354;7.744;2023-03-05T15:24:38;13.60;;;7.95;;
78555;SDS011;67851;51.354;7.744;2023-03-05T15:27:04;13.50;;;8.98;;
78555;SDS011;67851;51.354;7.744;2023-03-05T15:29:30;10.05;;;8.40;;
78555;SDS011;67851;51.354;7.744;2023-03-05T15:31:56;14.35;;;9.63;;
78555;SDS011;67851;51.354;7.744;2023-03-05T15:34:22;15.07;;;10.13;;
78555;SDS011;67851;51.354;7.744;2023-03-05T15:36:48;14.50;;;7.88;;
78555;SDS011;67851;51.354;7.744;2023-03-05T15:39:13;14.80;;;9.20;;
78555;SDS011;67851;51.354;7.744;2023-03-05T15:41:39;11.50;;;7.65;;
78555;SDS011;67851;51.354;7.744;2023-03-05T15:44:04;17.45;;;10.13;;
78555;SDS011;67851;51.354;7.744;2023-03-05T15:46:30;13.00;;;9.15;;
78555;SDS011;67851;51.354;7.744;2023-03-05T15:48:57;16.08;;;10.25;;
78555;SDS011;67851;51.354;7.744;2023-03-05T15:51:22;16.55;;;9.27;;
78555;SDS011;67851;51.354;7.744;2023-03-05T15:53:48;15.52;;;10.13;;
78555;SDS011;67851;51.354;7.744;2023-03-05T15:56:17;15.45;;;10.68;;
78555;SDS011;67851;51.354;7.744;2023-03-05T15:58:43;14.02;;;10.45;;
78555;SDS011;67851;51.354;7.744;2023-03-05T16:01:09;15.32;;;10.55;;
78555;SDS011;67851;51.354;7.744;2023-03-05T16:03:36;15.70;;;10.80;;
78555;SDS011;67851;51.354;7.744;2023-03-05T16:06:02;14.98;;;11.18;;
78555;SDS011;67851;51.354;7.744;2023-03-05T16:08:30;17.80;;;12.07;;
78555;SDS011;67851;51.354;7.744;2023-03-05T16:10:56;17.08;;;12.07;;
78555;SDS011;67851;51.354;7.744;2023-03-05T16:13:22;17.90;;;11.95;;
78555;SDS011;67851;51.354;7.744;2023-03-05T16:15:48;21.20;;;13.65;;